M I D A S
Marine Information and Data Acquisition System
Tripno 1210 of the Zeeleeuw from 2007-01-31 12:43:33 to 2007-01-31 15:22:51
Back to CruiseResearch ActivitiesStationsMapUnderway DataData graphs

EquipmentUnitsComment
TimeDGPSUTC
LatitudeDGPSDM.mWGS84
LongitudeDGPSDM.mWGS84
TemperatureSBE03/SBE38deg celciusITS90
ConductivitySBE21S/mITS90
SalinitySBE21 Practical Salinity Units
ChlorophylAChelsea fluorimeterg/lCalibrated in Aceton
Missing or incorrect values are displayed as -999
Sea surface data collected by the RV Zeeleeuw from 2007-01-31 07:54:49 to 2007-01-31 15:30:39
Time Latitude Longitude Temperature Conductivity Salinity ChlorophylA
2007-01-31 07:55:54 51°13.599 2°56.094 15.5185 0.005195 0.030969 -2.871232
2007-01-31 07:56:54 51°13.598 2°56.094 15.4913 0.005195 0.030974 -2.871232
2007-01-31 07:57:54 51°13.599 2°56.094 15.5575 0.005195 0.03098 -2.871232
2007-01-31 07:58:54 51°13.599 2°56.093 15.5135 0.005195 0.030985 -2.871232
2007-01-31 07:59:54 51°13.599 2°56.094 15.51 0.005195 0.030991 -2.871232
2007-01-31 08:00:54 51°13.599 2°56.094 15.4847 0.005195 0.030998 -2.871232
2007-01-31 08:01:54 51°13.599 2°56.094 15.4922 0.005195 0.031003 -2.871232
2007-01-31 08:02:54 51°13.598 2°56.095 15.4999 0.005195 0.031008 -2.871232
2007-01-31 08:03:54 51°13.598 2°56.095 15.52 0.005195 0.031013 -2.871232
2007-01-31 08:04:54 51°13.598 2°56.094 15.5382 0.005195 0.031017 -2.871232
2007-01-31 08:05:54 51°13.598 2°56.095 15.5291 0.005195 0.03102 -2.871232
2007-01-31 08:06:54 51°13.597 2°56.096 15.5306 0.005195 0.031024 -2.871232
2007-01-31 08:07:54 51°13.596 2°56.097 15.5247 0.005195 0.031028 -2.871232
2007-01-31 08:08:54 51°13.596 2°56.097 15.5388 0.005195 0.031031 -2.871232
2007-01-31 08:09:54 51°13.597 2°56.097 15.5206 0.005195 0.031034 -2.871232
2007-01-31 08:10:54 51°13.597 2°56.097 15.524 0.005195 0.031037 -2.871232
2007-01-31 08:11:54 51°13.598 2°56.096 15.5295 0.005195 0.031039 -2.871232
2007-01-31 08:12:54 51°13.599 2°56.096 15.5515 0.005195 0.031042 -2.871232
2007-01-31 08:13:54 51°13.6 2°56.095 15.5416 0.005195 0.031045 -2.871232
2007-01-31 08:14:54 51°13.6 2°56.095 15.5457 0.005195 0.031048 -2.871232
2007-01-31 08:15:54 51°13.601 2°56.094 15.5502 0.005195 0.031049 -2.871232
2007-01-31 08:16:54 51°13.601 2°56.094 15.5552 0.005195 0.031051 -2.871232
2007-01-31 08:17:54 51°13.6 2°56.094 15.5548 0.005195 0.031052 -2.871232
2007-01-31 08:18:54 51°13.6 2°56.094 15.5416 0.005195 0.031054 -2.871232
2007-01-31 08:19:54 51°13.6 2°56.094 15.5632 0.005195 0.031056 -2.871232
2007-01-31 08:20:54 51°13.6 2°56.093 15.5561 0.005195 0.031059 -2.871232
2007-01-31 08:21:54 51°13.599 2°56.093 15.5699 0.005195 0.031062 -2.871232
2007-01-31 08:22:54 51°13.599 2°56.093 15.5725 0.005195 0.031065 -2.871232
2007-01-31 08:23:54 51°13.599 2°56.093 15.5761 0.005195 0.031067 -2.871232
2007-01-31 08:24:54 51°13.6 2°56.093 15.562 0.005195 0.03107 -2.871232
2007-01-31 08:25:54 51°13.599 2°56.095 15.5891 0.005195 0.031074 -2.871232
2007-01-31 08:26:54 51°13.598 2°56.095 15.5761 0.005195 0.031077 -2.871232
2007-01-31 08:27:54 51°13.599 2°56.095 15.5931 0.005195 0.03108 -2.871232
2007-01-31 08:28:54 51°13.599 2°56.095 15.5997 0.005195 0.031084 -2.871232
2007-01-31 08:29:54 51°13.599 2°56.096 15.5977 0.005195 0.031087 -2.871232
2007-01-31 08:30:54 51°13.598 2°56.096 15.5997 0.005195 0.03109 -2.871232
2007-01-31 08:31:54 51°13.597 2°56.096 15.6137 0.005195 0.031093 -2.871232
2007-01-31 08:32:54 51°13.597 2°56.096 15.6337 0.005195 0.031096 -2.871232
2007-01-31 08:33:54 51°13.597 2°56.097 15.6354 0.005195 0.031099 -2.871232
2007-01-31 08:34:54 51°13.597 2°56.097 15.6294 0.005195 0.031102 -2.871232
2007-01-31 08:35:54 51°13.597 2°56.097 15.6405 0.005195 0.031105 -2.871232
2007-01-31 08:36:54 51°13.597 2°56.097 15.6108 0.005092 0.030651 -2.871232
2007-01-31 08:37:53 51°13.597 2°56.096 15.636 0.005092 0.030654 -2.871232
2007-01-31 08:38:54 51°13.597 2°56.097 15.6469 0.005092 0.030657 -2.871232
2007-01-31 08:39:54 51°13.597 2°56.096 15.6422 0.005092 0.030661 -2.871232
2007-01-31 08:40:54 51°13.596 2°56.097 15.6755 0.005092 0.030664 -2.871232
2007-01-31 08:41:54 51°13.596 2°56.097 15.6722 0.005092 0.030668 -2.871232
2007-01-31 08:42:54 51°13.597 2°56.096 15.6809 0.005092 0.030672 -2.871232
2007-01-31 08:43:54 51°13.606 2°56.064 15.6128 0.005092 0.030676 -2.871232
2007-01-31 08:44:54 51°13.633 2°55.974 15.7259 0.005092 0.030679 -2.871232
2007-01-31 08:45:54 51°13.667 2°55.866 15.748 0.005092 0.030683 -2.871232
2007-01-31 08:46:53 51°13.683 2°55.778 15.7681 0.005092 0.030686 -2.871232
2007-01-31 08:47:54 51°13.683 2°55.728 15.7763 0.005092 0.030688 -2.871232
2007-01-31 08:48:54 51°13.7 2°55.73 15.8578 0.005092 0.03069 -2.871232
2007-01-31 08:49:54 51°13.758 2°55.689 15.6447 0.005092 0.030691 -2.871232
2007-01-31 08:50:54 51°13.868 2°55.606 15.616 0.005092 0.030693 -2.871232
2007-01-31 08:51:53 51°14.001 2°55.515 7.4769 3.143857 25.823669 -2.871232
2007-01-31 08:52:54 51°14.141 2°55.406 7.121 2.748466 25.060266 -2.871232
2007-01-31 08:53:54 51°14.265 2°55.246 6.923 2.496469 22.756205 -2.871232
2007-01-31 08:54:54 51°14.389 2°55.043 6.9635 2.513107 23.010699 -2.871232
2007-01-31 08:55:53 51°14.511 2°54.823 7.0487 2.807097 26.006329 -2.871232
2007-01-31 08:56:54 51°14.616 2°54.571 7.0335 3.134282 29.297509 -2.871232
2007-01-31 08:57:53 51°14.708 2°54.32 7.0371 3.210346 30.126456 -2.871232
2007-01-31 08:58:53 51°14.783 2°54.081 7.0109 3.210553 30.138757 -2.871232
2007-01-31 08:59:53 51°14.788 2°53.84 7.0056 3.183024 29.87135 -2.871232
2007-01-31 09:00:53 51°14.784 2°53.598 7.0081 3.224318 30.300546 -2.871232
2007-01-31 09:01:53 51°14.781 2°53.358 6.9906 3.223491 30.309816 -2.871232
2007-01-31 09:02:53 51°14.773 2°53.118 7.0033 3.238809 30.476178 -2.871232
2007-01-31 09:03:53 51°14.733 2°52.882 7.0361 3.205586 30.118434 -2.871232
2007-01-31 09:04:54 51°14.718 2°52.634 7.0251 3.237256 30.432617 -2.871232
2007-01-31 09:05:53 51°14.711 2°52.391 7.0255 3.232806 30.393982 -2.871232
2007-01-31 09:06:53 51°14.703 2°52.144 7.0339 3.232185 30.38581 -2.871232
2007-01-31 09:07:53 51°14.698 2°51.902 7.0377 3.208794 30.135707 -2.871232
2007-01-31 09:08:53 51°14.69 2°51.664 7.0303 3.245743 30.525265 -2.871232
2007-01-31 09:09:53 51°14.685 2°51.435 7.0405 3.248124 30.551775 -2.871232
2007-01-31 09:10:53 51°14.669 2°51.333 7.0475 3.248228 30.545128 -2.871232
2007-01-31 09:11:53 51°14.664 2°51.353 7.0529 3.242431 30.47964 -2.871232
2007-01-31 09:12:53 51°14.661 2°51.383 7.0574 3.239223 30.445389 -2.871232
2007-01-31 09:13:53 51°14.656 2°51.414 7.0655 3.264892 30.704927 -2.871232
2007-01-31 09:14:53 51°14.648 2°51.443 7.0554 3.25982 30.656405 -2.871232
2007-01-31 09:15:53 51°14.64 2°51.471 7.0448 3.254024 30.600337 -2.871232
2007-01-31 09:16:53 51°14.635 2°51.501 7.0533 3.253299 30.598808 -2.871232
2007-01-31 09:17:53 51°14.63 2°51.533 7.0521 3.249677 30.567948 -2.871232
2007-01-31 09:18:53 51°14.627 2°51.568 7.0408 3.252471 30.593622 -2.871232
2007-01-31 09:19:53 51°14.625 2°51.603 7.0395 3.249056 30.564055 -2.871232
2007-01-31 09:20:54 51°14.623 2°51.64 7.0398 3.24978 30.572462 -2.871232
2007-01-31 09:21:53 51°14.621 2°51.676 7.033 3.25154 30.593374 -2.871232
2007-01-31 09:22:54 51°14.619 2°51.714 7.032 3.250815 30.588404 -2.871232
2007-01-31 09:23:53 51°14.616 2°51.749 7.0345 3.251126 30.59508 -2.871232
2007-01-31 09:24:53 51°14.612 2°51.785 7.0331 3.244191 30.517672 -2.871232
2007-01-31 09:25:53 51°14.609 2°51.822 7.0314 3.250608 30.588826 -2.871232
2007-01-31 09:26:53 51°14.606 2°51.858 7.0338 3.250815 30.591844 -2.871232
2007-01-31 09:27:53 51°14.603 2°51.897 7.034 3.251643 30.596173 -2.871232
2007-01-31 09:28:53 51°14.601 2°51.933 7.0348 3.25185 30.604352 -2.871232
2007-01-31 09:29:53 51°14.598 2°51.971 7.0364 3.253196 30.618376 -2.871232
2007-01-31 09:30:53 51°14.593 2°52.008 7.0271 3.256715 30.653337 -2.871232
2007-01-31 09:31:53 51°14.589 2°52.044 7.0287 3.257233 30.660456 -2.871232
2007-01-31 09:32:53 51°14.587 2°52.08 7.0284 3.256612 30.65312 -2.871232
2007-01-31 09:33:53 51°14.583 2°52.12 7.0267 3.25361 30.626136 -2.871232
2007-01-31 09:34:53 51°14.578 2°52.159 7.0268 3.252989 30.623968 -2.871232
2007-01-31 09:35:53 51°14.575 2°52.195 7.0231 3.254128 30.635839 -2.871232
2007-01-31 09:36:53 51°14.573 2°52.236 7.0256 3.256612 30.662603 -2.871232
2007-01-31 09:37:53 51°14.573 2°52.28 7.0278 3.254645 30.64382 -2.871232
2007-01-31 09:38:54 51°14.575 2°52.325 7.0305 3.258579 30.683112 -2.871232
2007-01-31 09:39:53 51°14.574 2°52.371 7.0222 3.259717 30.688944 -2.871232
2007-01-31 09:40:54 51°14.574 2°52.418 7.0211 3.258579 30.685701 -2.871232
2007-01-31 09:41:53 51°14.576 2°52.464 7.0194 3.257958 30.682676 -2.871232
2007-01-31 09:42:53 51°14.553 2°52.499 7.0205 3.258268 30.685914 -2.871232
2007-01-31 09:43:53 51°14.539 2°52.44 7.0134 3.258165 30.684835 -2.871232
2007-01-31 09:44:53 51°14.628 2°52.284 7.0118 3.256509 30.686552 -2.871232
2007-01-31 09:45:54 51°14.747 2°52.011 7.0305 3.257751 30.687422 -2.871232
2007-01-31 09:46:53 51°14.868 2°51.74 7.0382 3.257336 30.671021 -2.871232
2007-01-31 09:47:53 51°14.994 2°51.468 7.0405 3.268101 30.771193 -2.871232
2007-01-31 09:48:53 51°15.121 2°51.197 7.0397 3.278142 30.881144 -2.871232
2007-01-31 09:49:53 51°15.246 2°50.931 7.0371 3.285491 30.962209 -2.871232
2007-01-31 09:50:53 51°15.346 2°50.688 7.0739 3.310232 31.201362 -2.871232
2007-01-31 09:51:53 51°15.418 2°50.504 7.0765 3.314683 31.229432 -2.871232
2007-01-31 09:52:54 51°15.416 2°50.463 7.0898 3.311059 31.18722 -2.871232
2007-01-31 09:53:53 51°15.418 2°50.505 7.089 3.309921 31.159579 -2.871232
2007-01-31 09:54:54 51°15.427 2°50.562 7.0902 3.309196 31.156393 -2.871232
2007-01-31 09:55:53 51°15.434 2°50.62 7.0891 3.309921 31.162204 -2.871232
2007-01-31 09:56:54 51°15.441 2°50.681 7.0881 3.309817 31.164624 -2.871232
2007-01-31 09:57:53 51°15.447 2°50.739 7.0903 3.309817 31.164624 -2.871232
2007-01-31 09:58:53 51°15.452 2°50.796 7.0968 3.309817 31.162874 -2.871232
2007-01-31 09:59:53 51°15.455 2°50.853 7.0894 3.310749 31.17172 -2.871232
2007-01-31 10:00:53 51°15.458 2°50.91 7.0914 3.311577 31.181237 -2.871232
2007-01-31 10:01:53 51°15.437 2°50.959 7.0942 3.311887 31.188857 -2.871232
2007-01-31 10:02:53 51°15.365 2°50.948 7.1094 3.314786 31.218234 -2.871232
2007-01-31 10:03:53 51°15.39 2°50.839 7.0779 3.318926 31.229013 -2.871232
2007-01-31 10:04:53 51°15.476 2°50.656 7.0893 3.321308 31.292471 -2.871232
2007-01-31 10:05:53 51°15.541 2°50.426 7.0934 3.314683 31.217154 -2.871232
2007-01-31 10:06:53 51°15.606 2°50.189 7.1015 3.31168 31.181442 -2.871232
2007-01-31 10:07:53 51°15.673 2°49.954 7.1153 3.309092 31.145693 -2.871232
2007-01-31 10:08:53 51°15.741 2°49.722 7.1297 3.306918 31.10992 -2.871232
2007-01-31 10:09:53 51°15.807 2°49.491 7.1374 3.306608 31.097085 -2.871232
2007-01-31 10:10:53 51°15.863 2°49.253 7.1529 3.308574 31.10886 -2.871232
2007-01-31 10:11:53 51°15.92 2°49.013 7.173 3.31375 31.148825 -2.871232
2007-01-31 10:12:53 51°15.976 2°48.775 7.1942 3.32141 31.209401 -2.871232
2007-01-31 10:13:53 51°15.988 2°48.529 7.2134 3.332177 31.299642 -2.871232
2007-01-31 10:14:53 51°15.996 2°48.287 7.226 3.338802 31.351968 -2.871232
2007-01-31 10:15:53 51°15.96 2°48.203 7.2438 3.345635 31.412564 -2.871232
2007-01-31 10:16:53 51°15.967 2°48.258 7.2491 3.350604 31.444952 -2.871232
2007-01-31 10:17:53 51°15.986 2°48.318 7.2463 3.353503 31.47072 -2.871232
2007-01-31 10:18:53 51°15.997 2°48.378 7.2522 3.353606 31.476196 -2.871232
2007-01-31 10:19:53 51°15.996 2°48.442 7.2451 3.353399 31.472282 -2.871232
2007-01-31 10:20:53 51°15.951 2°48.476 7.2524 3.352985 31.466213 -2.871232
2007-01-31 10:21:53 51°15.929 2°48.402 7.25 3.35371 31.472875 -2.871232
2007-01-31 10:22:53 51°15.925 2°48.284 7.261 3.357437 31.5099 -2.871232
2007-01-31 10:23:53 51°15.919 2°48.203 7.2716 3.360646 31.53361 -2.871232
2007-01-31 10:24:53 51°15.902 2°48.165 7.2799 3.36458 31.56485 -2.871232
2007-01-31 10:25:53 51°15.876 2°48.122 7.2939 3.367997 31.593339 -2.871232
2007-01-31 10:26:53 51°15.845 2°48.06 7.3112 3.37162 31.617797 -2.871232
2007-01-31 10:27:53 51°15.817 2°47.992 7.316 3.374622 31.63843 -2.871232
2007-01-31 10:28:53 51°15.792 2°47.925 7.3212 3.377107 31.65632 -2.871232
2007-01-31 10:29:53 51°15.772 2°47.847 7.326 3.379281 31.675392 -2.871232
2007-01-31 10:30:53 51°15.753 2°47.773 7.3387 3.382491 31.699922 -2.871232
2007-01-31 10:31:53 51°15.735 2°47.699 7.3553 3.386736 31.731667 -2.871232
2007-01-31 10:32:53 51°15.715 2°47.625 7.3655 3.390463 31.756247 -2.871232
2007-01-31 10:33:53 51°15.693 2°47.555 7.3411 3.390774 31.755936 -2.871232
2007-01-31 10:34:53 51°15.668 2°47.485 7.3214 3.376072 31.628794 -2.871232
2007-01-31 10:35:53 51°15.644 2°47.409 7.3184 3.369963 31.581178 -2.871232
2007-01-31 10:36:53 51°15.619 2°47.337 7.3337 3.368928 31.566016 -2.871232
2007-01-31 10:37:53 51°15.594 2°47.278 7.3456 3.37162 31.585181 -2.871232
2007-01-31 10:38:53 51°15.57 2°47.217 7.3464 3.374104 31.602187 -2.871232
2007-01-31 10:39:53 51°15.551 2°47.149 7.3549 3.375864 31.612541 -2.871232
2007-01-31 10:40:53 51°15.531 2°47.087 7.3673 3.378246 31.630224 -2.871232
2007-01-31 10:41:53 51°15.512 2°47.026 7.3725 3.380316 31.643794 -2.871232
2007-01-31 10:42:53 51°15.492 2°46.964 7.3739 3.382697 31.659703 -2.871232
2007-01-31 10:43:53 51°15.473 2°46.902 7.3799 3.383319 31.667916 -2.871232
2007-01-31 10:44:53 51°15.458 2°46.84 7.3888 3.38425 31.671417 -2.871232
2007-01-31 10:45:53 51°15.465 2°46.783 7.3934 3.386425 31.686931 -2.871232
2007-01-31 10:46:53 51°15.497 2°46.776 7.4016 3.389427 31.711919 -2.871232
2007-01-31 10:47:53 51°15.529 2°46.814 7.406 3.389013 31.705856 -2.871232
2007-01-31 10:48:53 51°15.553 2°46.863 7.4006 3.386839 31.680648 -2.871232
2007-01-31 10:49:53 51°15.572 2°46.915 7.4082 3.385596 31.665995 -2.871232
2007-01-31 10:50:53 51°15.604 2°46.966 7.4049 3.385596 31.663352 -2.871232
2007-01-31 10:51:54 51°15.652 2°47.07 7.4126 3.3857 31.660022 -2.871232
2007-01-31 10:52:54 51°15.651 2°47.267 7.4051 3.38394 31.640886 -2.871232
2007-01-31 10:53:54 51°15.634 2°47.643 7.3951 3.383215 31.64041 -2.871232
2007-01-31 10:54:54 51°15.614 2°48.041 7.3921 3.387046 31.685441 -2.871232
2007-01-31 10:55:54 51°15.583 2°48.427 7.385 3.387357 31.704545 -2.871232
2007-01-31 10:56:54 51°15.548 2°48.804 7.3574 3.392948 31.763484 -2.871232
2007-01-31 10:57:54 51°15.514 2°49.194 7.2749 3.37835 31.660406 -2.871232
2007-01-31 10:58:54 51°15.485 2°49.582 7.2559 3.371206 31.643518 -2.871232
2007-01-31 10:59:54 51°15.459 2°49.97 7.2233 3.372035 31.668951 -2.871232
2007-01-31 11:00:54 51°15.432 2°50.364 7.2124 3.372553 31.692947 -2.871232
2007-01-31 11:01:54 51°15.399 2°50.755 7.1706 3.364063 31.640764 -2.871232
2007-01-31 11:02:54 51°15.37 2°51.146 7.1379 3.358991 31.612641 -2.871232
2007-01-31 11:03:54 51°15.34 2°51.532 7.1096 3.344186 31.48377 -2.871232
2007-01-31 11:04:54 51°15.294 2°51.913 7.0861 3.328037 31.343386 -2.871232
2007-01-31 11:05:54 51°15.198 2°52.26 7.0708 3.31696 31.239173 -2.871232
2007-01-31 11:06:54 51°15.109 2°52.618 7.0537 3.303917 31.116165 -2.871232
2007-01-31 11:07:54 51°15.018 2°52.968 7.055 3.294807 31.038549 -2.871232
2007-01-31 11:08:54 51°14.923 2°53.309 7.025 3.284663 30.94747 -2.871232
2007-01-31 11:09:54 51°14.826 2°53.65 7.021 3.27721 30.88358 -2.871232
2007-01-31 11:10:54 51°14.733 2°53.988 7.0147 3.276279 30.881674 -2.871232
2007-01-31 11:11:54 51°14.639 2°54.333 7.0255 3.28073 30.933378 -2.871232
2007-01-31 11:12:54 51°14.529 2°54.67 7.0278 3.284146 30.962092 -2.871232
2007-01-31 11:13:54 51°14.406 2°54.997 7.0136 3.274519 30.866774 -2.871232
2007-01-31 11:14:54 51°14.269 2°55.27 6.9371 3.264893 30.764543 -2.871232
2007-01-31 11:15:54 51°14.117 2°55.427 6.8711 2.955508 27.65176 -2.871232
2007-01-31 11:16:54 51°13.997 2°55.516 6.8965 2.775148 25.816079 -2.871232
2007-01-31 11:17:54 51°13.891 2°55.599 6.8779 2.655326 24.589021 -2.871232
2007-01-31 11:18:54 51°13.79 2°55.689 6.8842 2.572326 23.759196 -2.871232
2007-01-31 11:19:54 51°13.703 2°55.811 6.8575 2.546902 23.503442 -2.871232
2007-01-31 11:20:54 51°13.645 2°55.945 6.8573 2.45328 22.565353 -2.871232
2007-01-31 11:21:54 51°13.606 2°56.048 6.8887 2.562301 23.652185 -2.871232
2007-01-31 11:22:54 51°13.598 2°56.091 6.8271 2.511353 23.145525 -2.871232
2007-01-31 11:23:54 51°13.597 2°56.095 6.8617 2.479215 22.834255 -2.871232
2007-01-31 11:24:54 51°13.598 2°56.096 6.8721 2.527164 23.308807 -2.871232
2007-01-31 11:25:54 51°13.598 2°56.095 6.8781 2.566435 23.701451 -2.871232
2007-01-31 11:26:54 51°13.597 2°56.094 6.8775 2.587933 23.912849 -2.871232
2007-01-31 11:27:54 51°13.598 2°56.095 6.884 2.620594 24.24327 -2.871232
2007-01-31 11:28:54 51°13.597 2°56.095 6.886 2.636409 24.402041 -2.871232
2007-01-31 11:29:54 51°13.597 2°56.095 6.8918 2.64964 24.532534 -2.871232
2007-01-31 11:30:54 51°13.597 2°56.094 6.9127 2.703912 25.075753 -2.871232
2007-01-31 11:31:54 51°13.598 2°56.094 6.9039 2.759845 25.634099 -2.871232
2007-01-31 11:32:54 51°13.597 2°56.095 6.9063 2.716628 25.201959 -2.871232
2007-01-31 11:33:54 51°13.597 2°56.095 6.9115 2.722521 25.259262 -2.871232
2007-01-31 11:34:54 51°13.598 2°56.095 6.9229 2.736789 25.399224 -2.871232
2007-01-31 11:35:54 51°13.598 2°56.095 6.9294 2.783212 25.86512 -2.871232
2007-01-31 11:36:54 51°13.593 2°56.093 6.9116 2.774734 25.775477 -2.871232
2007-01-31 11:37:54 51°13.594 2°56.093 6.9165 2.729448 25.326412 -2.871232
2007-01-31 11:38:54 51°13.595 2°56.094 6.9254 2.718386 25.210656 -2.871232
2007-01-31 11:39:54 51°13.596 2°56.094 6.9297 2.747127 25.497651 -2.871232
2007-01-31 11:40:54 51°13.597 2°56.094 6.9312 2.767703 25.704309 -2.871232
2007-01-31 11:41:54 51°13.598 2°56.094 6.938 2.801618 26.049126 -2.871232
2007-01-31 11:42:54 51°13.599 2°56.095 6.9429 2.82385 26.272455 -2.871232
2007-01-31 11:43:54 51°13.598 2°56.095 6.9348 2.834915 26.385142 -2.871232
2007-01-31 11:44:54 51°13.598 2°56.095 6.9307 2.812268 26.158212 -2.871232
2007-01-31 11:45:54 51°13.598 2°56.095 6.9303 2.795 25.985035 -2.871232
2007-01-31 11:46:54 51°13.599 2°56.095 6.9296 2.786831 25.899963 -2.871232
2007-01-31 11:47:54 51°13.6 2°56.095 6.9309 2.786314 25.896132 -2.871232
2007-01-31 11:48:54 51°13.6 2°56.095 6.9317 2.787142 25.902408 -2.871232
2007-01-31 11:49:54 51°13.6 2°56.096 6.9332 2.787762 25.907296 -2.871232
2007-01-31 11:50:54 51°13.601 2°56.096 6.9302 2.793656 25.967615 -2.871232
2007-01-31 11:51:54 51°13.601 2°56.096 6.9324 2.80441 26.078451 -2.871232
2007-01-31 11:52:54 51°13.6 2°56.096 6.9361 2.817646 26.212569 -2.871232
2007-01-31 11:53:54 51°13.598 2°56.096 6.9466 2.829951 26.334993 -2.871232
2007-01-31 11:54:54 51°13.602 2°56.096 6.9468 2.84629 26.49883 -2.871232
2007-01-31 11:55:54 51°13.601 2°56.096 6.9512 2.853632 26.570422 -2.871232
2007-01-31 11:56:54 51°13.601 2°56.096 6.9469 2.858183 26.618615 -2.871232
2007-01-31 11:57:54 51°13.601 2°56.097 6.9479 2.859631 26.634225 -2.871232
2007-01-31 11:58:54 51°13.601 2°56.097 6.9496 2.863457 26.669748 -2.871232
2007-01-31 11:59:54 51°13.601 2°56.097 6.953 2.86718 26.707215 -2.871232
2007-01-31 12:00:54 51°13.6 2°56.096 6.9551 2.873282 26.76685 -2.871232
2007-01-31 12:01:54 51°13.601 2°56.096 6.9561 2.875247 26.785519 -2.871232
2007-01-31 12:02:54 51°13.601 2°56.096 6.9568 2.880211 26.837256 -2.871232
2007-01-31 12:03:54 51°13.601 2°56.095 6.956 2.89076 26.945635 -2.871232
2007-01-31 12:04:54 51°13.6 2°56.094 6.9527 2.894069 26.978889 -2.871232
2007-01-31 12:05:54 51°13.599 2°56.094 6.9552 2.892725 26.968109 -2.871232
2007-01-31 12:06:54 51°13.599 2°56.094 6.956 2.890657 26.943814 -2.871232
2007-01-31 12:07:54 51°13.599 2°56.094 6.9587 2.886106 26.895541 -2.871232
2007-01-31 12:08:54 51°13.599 2°56.095 6.9565 2.880728 26.8403 -2.871232
2007-01-31 12:09:54 51°13.598 2°56.095 6.9575 2.881348 26.846673 -2.871232
2007-01-31 12:10:54 51°13.598 2°56.095 6.9506 2.881659 26.849104 -2.871232
2007-01-31 12:11:54 51°13.598 2°56.095 6.96 2.867283 26.70602 -2.871232
2007-01-31 12:12:54 51°13.598 2°56.095 6.9578 2.870593 26.739242 -2.871232
2007-01-31 12:13:54 51°13.598 2°56.094 6.9544 2.873489 26.766713 -2.871232
2007-01-31 12:14:54 51°13.598 2°56.095 6.9592 2.875971 26.792953 -2.871232
2007-01-31 12:15:54 51°13.598 2°56.095 6.9593 2.883003 26.862156 -2.871232
2007-01-31 12:16:54 51°13.597 2°56.095 6.9626 2.900689 27.04236 -2.871232
2007-01-31 12:17:54 51°13.598 2°56.095 6.9561 2.908135 27.120448 -2.871232
2007-01-31 12:18:54 51°13.597 2°56.095 6.9563 2.911342 27.154951 -2.871232
2007-01-31 12:19:54 51°13.597 2°56.095 6.9514 2.912997 27.172738 -2.871232
2007-01-31 12:20:54 51°13.597 2°56.095 6.9555 2.894897 26.991954 -2.871232
2007-01-31 12:21:54 51°13.598 2°56.095 6.956 2.901516 27.055436 -2.871232
2007-01-31 12:22:54 51°13.597 2°56.096 6.9623 2.902964 27.067275 -2.871232
2007-01-31 12:23:54 51°13.597 2°56.095 6.9648 2.905032 27.081679 -2.871232
2007-01-31 12:24:54 51°13.597 2°56.095 6.9694 2.915272 27.185427 -2.871232
2007-01-31 12:25:54 51°13.597 2°56.095 6.9698 2.924063 27.275856 -2.871232
2007-01-31 12:26:54 51°13.597 2°56.095 6.9705 2.924581 27.281177 -2.871232
2007-01-31 12:27:54 51°13.598 2°56.095 6.9691 2.921788 27.250913 -2.871232
2007-01-31 12:28:54 51°13.599 2°56.096 6.9645 2.917237 27.208701 -2.871232
2007-01-31 12:29:54 51°13.599 2°56.095 6.9651 2.921271 27.250963 -2.871232
2007-01-31 12:30:54 51°13.599 2°56.095 6.9697 2.924891 27.285137 -2.871232
2007-01-31 12:31:54 51°13.599 2°56.094 6.9658 2.922926 27.264919 -2.871232
2007-01-31 12:32:54 51°13.598 2°56.095 6.951 2.904309 27.078048 -2.871232
2007-01-31 12:33:54 51°13.598 2°56.095 6.9557 2.877419 26.809332 -2.871232
2007-01-31 12:34:54 51°13.598 2°56.095 6.9593 2.887037 26.904346 -2.871232
2007-01-31 12:35:54 51°13.598 2°56.095 6.9597 2.889002 26.921502 -2.871232
2007-01-31 12:36:54 51°13.598 2°56.096 6.9689 2.883313 26.86383 -2.871232
2007-01-31 12:37:54 51°13.599 2°56.096 6.96 2.886623 26.893281 -2.871232
2007-01-31 12:38:54 51°13.599 2°56.097 6.9632 2.86356 26.663299 -2.871232
2007-01-31 12:39:54 51°13.599 2°56.096 6.9607 2.871627 26.743082 -2.871232
2007-01-31 12:40:54 51°13.599 2°56.096 6.9688 2.862009 26.64363 -2.871232
2007-01-31 12:41:54 51°13.599 2°56.096 6.9636 2.866559 26.688817 -2.871232
2007-01-31 12:42:54 51°13.599 2°56.096 6.9692 2.871213 26.735072 -2.871232
2007-01-31 12:43:54 51°13.598 2°56.096 6.967 2.87959 26.817288 -2.871232
2007-01-31 12:44:54 51°13.598 2°56.097 6.971 2.88714 26.894049 -2.871232
2007-01-31 12:45:54 51°13.61 2°56.062 6.9658 2.873902 26.758903 -2.871232
2007-01-31 12:46:54 51°13.647 2°55.946 6.9356 2.842257 26.443307 -2.871232
2007-01-31 12:47:54 51°13.689 2°55.824 6.9385 2.778146 25.803831 -2.871232
2007-01-31 12:48:54 51°13.707 2°55.745 6.9345 2.796654 25.993916 -2.871232
2007-01-31 12:49:54 51°13.715 2°55.746 6.9224 2.763257 25.655245 -2.871232
2007-01-31 12:50:54 51°13.709 2°55.733 6.934 2.71456 25.163828 -2.871232
2007-01-31 12:51:54 51°13.717 2°55.731 6.9176 2.80927 26.128966 -2.871232
2007-01-31 12:52:54 51°13.772 2°55.693 6.9145 2.721177 25.241985 -2.871232
2007-01-31 12:53:54 51°13.87 2°55.612 6.9056 2.553206 23.538763 -2.871232
2007-01-31 12:54:54 51°13.984 2°55.526 6.9222 2.640544 24.422059 -2.871232
2007-01-31 12:55:54 51°14.1 2°55.44 6.9232 2.710425 25.126615 -2.871232
2007-01-31 12:56:54 51°14.208 2°55.332 6.942 2.659977 24.607229 -2.871232
2007-01-31 12:57:54 51°14.308 2°55.178 6.9542 2.569949 23.674956 -2.871232
2007-01-31 12:58:54 51°14.429 2°54.971 6.928 2.730482 25.312707 -2.871232
2007-01-31 12:59:54 51°14.562 2°54.758 7.0311 2.975472 27.822624 -2.871232
2007-01-31 13:00:54 51°14.654 2°54.513 7.0629 3.235497 30.435681 -2.871232
2007-01-31 13:01:54 51°14.698 2°54.236 7.0754 3.275554 30.837663 -2.871232
2007-01-31 13:02:54 51°14.742 2°53.959 7.0618 3.292012 31.005891 -2.871232
2007-01-31 13:03:54 51°14.778 2°53.674 7.0674 3.304538 31.138392 -2.871232
2007-01-31 13:04:54 51°14.82 2°53.387 7.0757 3.310646 31.197795 -2.871232
2007-01-31 13:05:54 51°14.865 2°53.101 7.08 3.317788 31.262742 -2.871232
2007-01-31 13:06:54 51°14.908 2°52.818 7.0801 3.318306 31.263756 -2.871232
2007-01-31 13:07:54 51°14.954 2°52.533 7.0663 3.310024 31.188679 -2.871232
2007-01-31 13:08:54 51°15 2°52.25 7.0671 3.309921 31.19198 -2.871232
2007-01-31 13:09:54 51°15.045 2°51.97 7.0763 3.314786 31.236655 -2.871232
2007-01-31 13:10:54 51°15.092 2°51.686 7.092 3.322033 31.303556 -2.871232
2007-01-31 13:11:54 51°15.139 2°51.404 7.1211 3.329176 31.363198 -2.871232
2007-01-31 13:12:54 51°15.188 2°51.122 7.1906 3.274207 30.735526 -2.871232
2007-01-31 13:13:54 51°15.234 2°50.839 7.191 3.311058 31.08855 -2.871232
2007-01-31 13:14:54 51°15.281 2°50.557 7.2613 3.33228 31.284957 -2.871232
2007-01-31 13:15:54 51°15.328 2°50.275 7.3099 3.358782 31.511579 -2.871232
2007-01-31 13:16:54 51°15.375 2°49.992 7.3087 3.368203 31.577859 -2.871232
2007-01-31 13:17:54 51°15.422 2°49.71 7.3937 3.371102 31.585086 -2.871232
2007-01-31 13:18:54 51°15.468 2°49.425 7.4286 3.380316 31.60946 -2.871232
2007-01-31 13:19:54 51°15.514 2°49.14 7.4719 3.401333 31.781578 -2.871232
2007-01-31 13:20:54 51°15.561 2°48.861 7.5012 3.39978 31.737265 -2.871232
2007-01-31 13:21:54 51°15.607 2°48.575 7.4957 3.402161 31.741666 -2.871232
2007-01-31 13:22:54 51°15.654 2°48.288 7.499 3.406096 31.783277 -2.871232
2007-01-31 13:23:54 51°15.702 2°48.014 7.4912 3.408995 31.816824 -2.871232
2007-01-31 13:24:54 51°15.733 2°47.839 7.5155 3.421006 31.928835 -2.871232
2007-01-31 13:25:54 51°15.741 2°47.815 7.5246 3.431464 32.026516 -2.871232
2007-01-31 13:26:54 51°15.752 2°47.841 7.5236 3.427633 31.993931 -2.871232
2007-01-31 13:27:54 51°15.769 2°47.879 7.5087 3.410859 31.815824 -2.871232
2007-01-31 13:28:54 51°15.788 2°47.914 7.5097 3.434053 32.060443 -2.871232
2007-01-31 13:29:54 51°15.806 2°47.948 7.5117 3.44213 32.144149 -2.871232
2007-01-31 13:30:54 51°15.822 2°47.983 7.5207 3.440783 32.131087 -2.871232
2007-01-31 13:31:54 51°15.836 2°48.021 7.5165 3.430532 32.015976 -2.871232
2007-01-31 13:32:54 51°15.846 2°48.058 7.5416 3.437263 32.083031 -2.871232
2007-01-31 13:33:54 51°15.854 2°48.094 7.5271 3.438609 32.096087 -2.871232
2007-01-31 13:34:54 51°15.865 2°48.129 7.5217 3.441819 32.131127 -2.871232
2007-01-31 13:35:54 51°15.875 2°48.164 7.5158 3.438195 32.090017 -2.871232
2007-01-31 13:36:54 51°15.883 2°48.198 7.5189 3.436745 32.072333 -2.871232
2007-01-31 13:37:54 51°15.893 2°48.232 7.5412 3.440266 32.111472 -2.871232
2007-01-31 13:38:54 51°15.902 2°48.267 7.5282 3.439851 32.102732 -2.871232
2007-01-31 13:39:54 51°15.91 2°48.304 7.5408 3.441819 32.134691 -2.871232
2007-01-31 13:40:54 51°15.918 2°48.338 7.5231 3.433224 32.034094 -2.871232
2007-01-31 13:41:54 51°15.927 2°48.37 7.5347 3.437987 32.089651 -2.871232
2007-01-31 13:42:54 51°15.935 2°48.401 7.5271 3.439541 32.098624 -2.871232
2007-01-31 13:43:54 51°15.944 2°48.436 7.5331 3.439126 32.095223 -2.871232
2007-01-31 13:44:54 51°15.951 2°48.47 7.5268 3.420488 31.90224 -2.871232
2007-01-31 13:45:54 51°15.96 2°48.504 7.5252 3.429186 31.998486 -2.871232
2007-01-31 13:46:54 51°15.967 2°48.539 7.529 3.434363 32.040561 -2.871232
2007-01-31 13:47:54 51°15.975 2°48.575 7.5195 3.429186 31.994051 -2.871232
2007-01-31 13:48:54 51°15.983 2°48.61 7.5507 3.429082 31.992092 -2.871232
2007-01-31 13:49:54 51°15.988 2°48.644 7.5277 3.433121 32.034797 -2.871232
2007-01-31 13:50:54 51°15.993 2°48.678 7.5337 3.429186 31.986073 -2.871232
2007-01-31 13:51:54 51°15.998 2°48.71 7.5387 3.427529 31.976011 -2.871232
2007-01-31 13:52:54 51°16.002 2°48.741 7.543 3.42784 31.982773 -2.871232
2007-01-31 13:53:54 51°16.007 2°48.771 7.5416 3.424423 31.941197 -2.871232
2007-01-31 13:54:54 51°15.996 2°48.801 7.5469 3.422352 31.920646 -2.871232
2007-01-31 13:55:54 51°15.944 2°48.703 7.5321 3.421937 31.899564 -2.871232
2007-01-31 13:56:54 51°15.921 2°48.461 7.5208 3.402782 31.716427 -2.871232
2007-01-31 13:57:54 51°15.908 2°48.335 7.5285 3.422145 31.918503 -2.871232
2007-01-31 13:58:54 51°15.906 2°48.335 7.5515 3.416243 31.855658 -2.871232
2007-01-31 13:59:54 51°15.895 2°48.363 7.5398 3.434674 32.034901 -2.871232
2007-01-31 14:00:54 51°15.834 2°48.338 7.5376 3.436434 32.053124 -2.871232
2007-01-31 14:01:54 51°15.821 2°48.242 7.5416 3.430428 31.990958 -2.871232
2007-01-31 14:02:54 51°15.809 2°48.152 7.5368 3.427218 31.971023 -2.871232
2007-01-31 14:03:54 51°15.785 2°48.078 7.546 3.433535 32.032872 -2.871232
2007-01-31 14:04:54 51°15.751 2°47.989 7.5406 3.437159 32.070401 -2.871232
2007-01-31 14:05:54 51°15.737 2°47.895 7.5533 3.438091 32.073831 -2.871232
2007-01-31 14:06:54 51°15.726 2°47.811 7.5386 3.436745 32.059893 -2.871232
2007-01-31 14:07:54 51°15.712 2°47.728 7.5574 3.432292 32.013797 -2.871232
2007-01-31 14:08:54 51°15.699 2°47.65 7.558 3.431464 32.01143 -2.871232
2007-01-31 14:09:54 51°15.674 2°47.556 7.5443 3.425251 31.933842 -2.871232
2007-01-31 14:10:54 51°15.648 2°47.464 7.5493 3.433327 32.015646 -2.871232
2007-01-31 14:11:54 51°15.619 2°47.37 7.5663 3.430014 31.991102 -2.871232
2007-01-31 14:12:54 51°15.586 2°47.291 7.5572 3.431671 31.995842 -2.871232
2007-01-31 14:13:54 51°15.552 2°47.22 7.5394 3.431671 31.999387 -2.871232
2007-01-31 14:14:54 51°15.521 2°47.156 7.5523 3.43602 32.041736 -2.871232
2007-01-31 14:15:54 51°15.49 2°47.088 7.5369 3.429186 31.974556 -2.871232
2007-01-31 14:16:54 51°15.46 2°47.018 7.5553 3.434674 32.030465 -2.871232
2007-01-31 14:17:54 51°15.436 2°46.937 7.5339 3.427633 31.973539 -2.871232
2007-01-31 14:18:54 51°15.414 2°46.851 7.5675 3.43281 32.028029 -2.871232
2007-01-31 14:19:54 51°15.393 2°46.771 7.5386 3.429393 31.993535 -2.871232
2007-01-31 14:20:54 51°15.366 2°46.693 7.537 3.424837 31.939288 -2.871232
2007-01-31 14:21:54 51°15.34 2°46.623 7.5265 3.431981 32.011468 -2.871232
2007-01-31 14:22:54 51°15.318 2°46.546 7.538 3.435088 32.048955 -2.871232
2007-01-31 14:23:54 51°15.293 2°46.469 7.537 3.433328 32.024516 -2.871232
2007-01-31 14:24:54 51°15.269 2°46.391 7.5429 3.43633 32.052052 -2.871232
2007-01-31 14:25:54 51°15.243 2°46.307 7.5367 3.437056 32.080885 -2.871232
2007-01-31 14:26:54 51°15.216 2°46.236 7.5425 3.43602 32.063048 -2.871232
2007-01-31 14:27:54 51°15.192 2°46.176 7.5179 3.435916 32.064641 -2.871232
2007-01-31 14:28:54 51°15.169 2°46.103 7.5353 3.432085 32.032064 -2.871232
2007-01-31 14:29:54 51°15.141 2°46.032 7.5182 3.429186 32.002034 -2.871232
2007-01-31 14:30:54 51°15.133 2°45.959 7.5228 3.436952 32.088708 -2.871232
2007-01-31 14:31:54 51°15.155 2°45.916 7.5119 3.435399 32.07884 -2.871232
2007-01-31 14:32:54 51°15.19 2°45.88 7.5047 3.429911 32.024634 -2.871232
2007-01-31 14:33:54 51°15.243 2°45.878 7.5142 3.429807 32.024449 -2.871232
2007-01-31 14:34:54 51°15.282 2°45.893 7.5068 3.433432 32.064675 -2.871232
2007-01-31 14:35:54 51°15.308 2°45.906 7.5154 3.429083 32.024044 -2.871232
2007-01-31 14:36:54 51°15.326 2°45.918 7.5063 3.428565 32.013349 -2.871232
2007-01-31 14:37:54 51°15.339 2°45.933 7.5084 3.431671 32.045542 -2.871232
2007-01-31 14:38:54 51°15.349 2°45.955 7.4984 3.434881 32.077032 -2.871232
2007-01-31 14:39:54 51°15.359 2°45.977 7.4991 3.432707 32.068727 -2.871232
2007-01-31 14:40:54 51°15.393 2°46.002 7.4979 3.43281 32.068021 -2.871232
2007-01-31 14:41:54 51°15.423 2°46.092 7.4991 3.427426 32.006874 -2.871232
2007-01-31 14:42:54 51°15.429 2°46.23 7.5125 3.430325 32.03959 -2.871232
2007-01-31 14:43:54 51°15.438 2°46.384 7.5039 3.425044 31.984855 -2.871232
2007-01-31 14:44:54 51°15.447 2°46.544 7.5101 3.431878 32.052133 -2.871232
2007-01-31 14:45:54 51°15.453 2°46.705 7.514 3.430118 32.029445 -2.871232
2007-01-31 14:46:54 51°15.45 2°46.866 7.5154 3.428565 32.012461 -2.871232
2007-01-31 14:47:54 51°15.451 2°47.028 7.5042 3.42784 32.004063 -2.871232
2007-01-31 14:48:54 51°15.452 2°47.188 7.5089 3.416139 31.885512 -2.871232
2007-01-31 14:49:54 51°15.454 2°47.38 7.5015 3.425873 31.98634 -2.871232
2007-01-31 14:50:54 51°15.457 2°47.624 7.4964 3.426598 31.998289 -2.871232
2007-01-31 14:51:54 51°15.459 2°47.878 7.5006 3.425355 31.990737 -2.871232
2007-01-31 14:52:54 51°15.462 2°48.133 7.49 3.423491 31.975857 -2.871232
2007-01-31 14:53:54 51°15.461 2°48.39 7.4748 3.423077 31.976001 -2.871232
2007-01-31 14:54:54 51°15.46 2°48.646 7.4594 3.41117 31.867632 -2.871232
2007-01-31 14:55:54 51°15.457 2°48.901 7.4421 3.407442 31.849338 -2.871232
2007-01-31 14:56:54 51°15.432 2°49.152 7.3987 3.403922 31.837601 -2.871232
2007-01-31 14:57:54 51°15.388 2°49.397 7.3034 3.39419 31.777273 -2.871232
2007-01-31 14:58:54 51°15.348 2°49.643 7.2475 3.389014 31.817422 -2.871232
2007-01-31 14:59:54 51°15.312 2°49.891 7.2315 3.384873 31.806273 -2.871232
2007-01-31 15:00:54 51°15.272 2°50.155 7.2284 3.375969 31.726785 -2.871232
2007-01-31 15:01:54 51°15.223 2°50.487 7.2022 3.349051 31.46221 -2.871232
2007-01-31 15:02:54 51°15.179 2°50.769 7.1655 3.361061 31.613875 -2.871232
2007-01-31 15:03:54 51°15.147 2°50.978 7.1546 3.349466 31.510608 -2.871232
2007-01-31 15:04:54 51°15.119 2°51.141 7.136 3.338078 31.414736 -2.871232
2007-01-31 15:05:54 51°15.093 2°51.299 7.1327 3.33197 31.359811 -2.871232
2007-01-31 15:06:54 51°15.061 2°51.54 7.1183 3.330625 31.349287 -2.871232
2007-01-31 15:07:54 51°15.043 2°51.82 7.1176 3.320479 31.256607 -2.871232
2007-01-31 15:08:54 51°15.025 2°52.104 7.1352 3.30785 31.125747 -2.871232
2007-01-31 15:09:54 51°15.005 2°52.386 7.1188 3.32462 31.300694 -2.871232
2007-01-31 15:10:54 51°14.977 2°52.645 7.1416 3.313026 31.17098 -2.871232
2007-01-31 15:11:54 51°14.943 2°52.826 7.149 3.329693 31.336049 -2.871232
2007-01-31 15:12:54 51°14.886 2°52.961 7.1343 3.3299 31.339967 -2.871232
2007-01-31 15:13:54 51°14.817 2°53.116 7.1306 3.334351 31.385535 -2.871232
2007-01-31 15:14:54 51°14.731 2°53.318 7.1528 3.330107 31.340369 -2.871232
2007-01-31 15:15:54 51°14.64 2°53.571 7.1256 3.312508 31.168206 -2.871232
2007-01-31 15:16:54 51°14.581 2°53.866 7.1411 3.32286 31.257767 -2.871232
2007-01-31 15:17:54 51°14.522 2°54.161 7.1282 3.327312 31.302431 -2.871232
2007-01-31 15:18:54 51°14.469 2°54.455 7.1126 3.305158 31.097682 -2.871232
2007-01-31 15:19:54 51°14.424 2°54.754 7.0527 3.247296 30.529424 -2.871232
2007-01-31 15:20:54 51°14.363 2°55.052 7.079 3.232184 30.362774 -2.871232
2007-01-31 15:21:54 51°14.243 2°55.289 7.0102 3.086996 28.907283 -2.871232
2007-01-31 15:22:54 51°14.123 2°55.402 6.9924 3.006195 28.082935 -2.871232
2007-01-31 15:23:54 51°14.004 2°55.498 7.0632 2.904825 27.049853 -2.871232
2007-01-31 15:24:54 51°13.872 2°55.603 7.1015 2.816093 26.090085 -2.871232
2007-01-31 15:25:54 51°13.755 2°55.718 7.0576 2.832432 26.260561 -2.871232
2007-01-31 15:26:54 51°13.684 2°55.838 7.0923 2.626484 24.137698 -2.871232
2007-01-31 15:27:54 51°13.635 2°55.953 7.0558 2.67972 24.688509 -2.871232
2007-01-31 15:28:54 51°13.607 2°56.05 7.028 2.436229 22.249633 -2.871232
2007-01-31 15:29:54 51°13.599 2°56.092 7.0619 2.304305 20.925946 -2.871232